Time;durP1;ratioP1;P1;durP2;ratioP2;P2;SDS_P1;SDS_P2;PMS_P1;PMS_P2;Temp;Humidity;BMP_temperature;BMP_pressure;BME280_temperature;BME280_humidity;BME280_pressure;Samples;Min_cycle;Max_cycle;Signal;HPM_P1;HPM_P2
2023/05/01 00:01:05;;;;;;;9.13;3.28;;;6.80;99.90;;;;;;5051156;28;20125;-87
2023/05/01 00:03:31;;;;;;;7.05;3.63;;;6.90;99.90;;;;;;5059806;28;20053;-86
2023/05/01 00:06:01;;;;;;;10.10;3.58;;;7.00;99.90;;;;;;5056542;28;20040;-95
2023/05/01 00:08:26;;;;;;;9.60;3.70;;;7.10;99.90;;;;;;5041936;28;20485;-86
2023/05/01 00:10:52;;;;;;;10.93;3.83;;;7.20;99.90;;;;;;5052690;28;20036;-86
2023/05/01 00:13:20;;;;;;;16.52;3.78;;;7.20;99.90;;;;;;5058368;28;20025;-89
2023/05/01 00:15:46;;;;;;;12.90;3.53;;;7.30;99.90;;;;;;5047841;28;20500;-86
2023/05/01 00:18:12;;;;;;;8.70;3.65;;;7.30;99.90;;;;;;5044087;28;20115;-88
2023/05/01 00:20:37;;;;;;;10.18;4.68;;;7.30;99.90;;;;;;5053920;28;20436;-86
2023/05/01 00:23:03;;;;;;;7.57;3.05;;;7.30;99.90;;;;;;5051410;28;20033;-87
2023/05/01 00:25:31;;;;;;;6.20;3.42;;;7.30;99.90;;;;;;5052460;28;20047;-88
2023/05/01 00:27:58;;;;;;;6.22;3.33;;;7.30;99.90;;;;;;5053600;28;20029;-89
2023/05/01 00:30:24;;;;;;;7.97;3.70;;;7.20;99.90;;;;;;5062214;28;20495;-87
2023/05/01 00:32:50;;;;;;;9.05;3.42;;;7.20;99.90;;;;;;5046565;28;20020;-88
2023/05/01 00:35:15;;;;;;;9.40;3.33;;;7.20;99.90;;;;;;5055073;28;20032;-88
2023/05/01 00:37:41;;;;;;;25.55;4.30;;;7.20;99.90;;;;;;5049266;28;20036;-89
2023/05/01 00:40:07;;;;;;;11.57;3.92;;;7.10;99.90;;;;;;5050956;28;20537;-87
2023/05/01 00:42:38;;;;;;;11.45;4.07;;;7.10;99.90;;;;;;5048104;28;20039;-88
2023/05/01 00:45:05;;;;;;;10.07;3.72;;;7.00;99.90;;;;;;5051040;28;20052;-91
2023/05/01 00:47:32;;;;;;;12.02;4.25;;;6.90;99.90;;;;;;5047660;28;20098;-87
2023/05/01 00:49:59;;;;;;;12.32;5.63;;;6.90;99.90;;;;;;5045402;28;20025;-89
2023/05/01 00:52:25;;;;;;;12.02;4.38;;;6.90;99.90;;;;;;5049565;28;20477;-88
2023/05/01 00:54:53;;;;;;;9.82;4.32;;;6.80;99.90;;;;;;5049020;28;20029;-87
2023/05/01 00:57:21;;;;;;;11.77;3.85;;;6.80;99.90;;;;;;5059429;28;20512;-95
2023/05/01 00:59:47;;;;;;;10.30;4.95;;;6.70;99.90;;;;;;5051547;28;20069;-87
2023/05/01 01:02:13;;;;;;;11.25;4.20;;;6.60;99.90;;;;;;5056789;28;20490;-88
2023/05/01 01:04:43;;;;;;;13.95;4.53;;;6.60;99.90;;;;;;5050222;28;20068;-88
2023/05/01 01:07:27;;;;;;;10.82;4.25;;;6.50;99.90;;;;;;5057459;28;20132;-87
2023/05/01 01:10:26;;;;;;;13.05;4.50;;;6.40;99.90;;;;;;5043362;28;20447;-88
2023/05/01 01:13:18;;;;;;;11.20;4.72;;;6.40;99.90;;;;;;5048467;28;20365;-88
2023/05/01 01:16:06;;;;;;;8.52;3.75;;;6.30;99.90;;;;;;5049813;28;20033;-88
2023/05/01 01:18:39;;;;;;;6.82;3.90;;;6.30;99.90;;;;;;5048242;28;20111;-88
2023/05/01 01:21:31;;;;;;;8.57;3.65;;;6.30;99.90;;;;;;5053362;28;20054;-87
2023/05/01 01:24:12;;;;;;;13.18;4.53;;;6.20;99.90;;;;;;5049691;28;20111;-88
2023/05/01 01:27:02;;;;;;;6.72;4.03;;;6.20;99.90;;;;;;5054830;28;20397;-88
2023/05/01 01:30:01;;;;;;;9.95;4.45;;;6.20;99.90;;;;;;5047946;28;20055;-89
2023/05/01 01:32:30;;;;;;;15.40;4.68;;;6.10;99.90;;;;;;5044452;28;20037;-91
2023/05/01 01:35:05;;;;;;;10.23;4.53;;;6.10;99.90;;;;;;5056284;28;20029;-91
2023/05/01 01:37:43;;;;;;;15.27;4.53;;;6.00;99.90;;;;;;5050939;28;20033;-89
2023/05/01 01:40:11;;;;;;;9.07;4.18;;;6.00;99.90;;;;;;5052562;28;20440;-87
2023/05/01 01:42:42;;;;;;;9.20;4.25;;;6.00;99.90;;;;;;5056206;28;20037;-87
2023/05/01 01:45:16;;;;;;;10.30;4.10;;;6.00;99.90;;;;;;5051112;28;20048;-87
2023/05/01 01:47:43;;;;;;;9.30;4.45;;;6.00;99.90;;;;;;5042662;28;20049;-87
2023/05/01 01:50:11;;;;;;;17.00;4.93;;;5.90;99.90;;;;;;5044105;28;20489;-90
2023/05/01 01:52:39;;;;;;;7.22;3.72;;;5.90;99.90;;;;;;5050844;28;20374;-87
2023/05/01 01:55:09;;;;;;;11.80;4.75;;;5.80;99.90;;;;;;5054219;28;20024;-88
2023/05/01 01:57:42;;;;;;;10.73;4.32;;;5.80;99.90;;;;;;5046719;28;20033;-87
2023/05/01 02:00:10;;;;;;;12.88;4.55;;;5.70;99.90;;;;;;5040245;28;20028;-87
2023/05/01 02:02:38;;;;;;;14.90;4.63;;;5.70;99.90;;;;;;5052878;28;20115;-87
2023/05/01 02:05:10;;;;;;;13.85;4.60;;;5.70;99.90;;;;;;5057649;28;20405;-88
2023/05/01 02:07:39;;;;;;;12.95;5.45;;;5.60;99.90;;;;;;5048208;28;20060;-89
2023/05/01 02:10:07;;;;;;;13.95;4.47;;;5.60;99.90;;;;;;5056889;28;20028;-88
2023/05/01 02:12:34;;;;;;;7.78;4.03;;;5.50;99.90;;;;;;5050291;28;20032;-87
2023/05/01 02:15:00;;;;;;;7.47;4.05;;;5.40;99.90;;;;;;5053187;28;20120;-90
2023/05/01 02:17:27;;;;;;;8.98;4.40;;;5.40;99.90;;;;;;5057738;28;20028;-88
2023/05/01 02:19:54;;;;;;;22.70;4.78;;;5.40;99.90;;;;;;5049567;28;20025;-88
2023/05/01 02:22:21;;;;;;;10.48;4.72;;;5.30;99.90;;;;;;5056221;28;20032;-87
2023/05/01 02:24:48;;;;;;;11.55;5.05;;;5.30;99.90;;;;;;5053282;28;20035;-92
2023/05/01 02:27:22;;;;;;;9.20;4.55;;;5.30;99.90;;;;;;5045629;28;20094;-87
2023/05/01 02:29:50;;;;;;;10.07;4.68;;;5.30;99.90;;;;;;5052024;28;20738;-88
2023/05/01 02:32:16;;;;;;;13.13;5.85;;;5.20;99.90;;;;;;5049360;28;20029;-88
2023/05/01 02:34:42;;;;;;;9.70;4.10;;;5.20;99.90;;;;;;5049564;28;20040;-91
2023/05/01 02:37:10;;;;;;;10.60;5.15;;;5.20;99.90;;;;;;5055952;28;20029;-87
2023/05/01 02:39:36;;;;;;;7.65;4.18;;;5.10;99.90;;;;;;5048941;28;20032;-88
2023/05/01 02:42:03;;;;;;;17.92;4.97;;;5.10;99.90;;;;;;5051641;28;20033;-88
2023/05/01 02:44:37;;;;;;;13.00;4.60;;;5.10;99.90;;;;;;5056632;28;20094;-87
2023/05/01 02:47:05;;;;;;;15.40;4.95;;;5.00;99.90;;;;;;5062451;28;20071;-88
2023/05/01 02:49:33;;;;;;;9.95;4.68;;;5.00;99.90;;;;;;5054410;28;20057;-87
2023/05/01 02:51:59;;;;;;;13.40;4.53;;;5.10;99.90;;;;;;5058828;28;20478;-88
2023/05/01 02:54:26;;;;;;;14.02;5.00;;;5.10;99.90;;;;;;5055094;28;20466;-87
2023/05/01 02:56:52;;;;;;;10.18;4.68;;;5.10;99.90;;;;;;5045221;28;20112;-88
2023/05/01 02:59:18;;;;;;;10.10;4.78;;;5.10;99.90;;;;;;5055426;28;20378;-88
2023/05/01 03:01:43;;;;;;;13.95;5.85;;;5.00;99.90;;;;;;5050792;28;20028;-88
2023/05/01 03:04:09;;;;;;;15.95;5.35;;;5.10;99.90;;;;;;5057708;28;20044;-87
2023/05/01 03:06:35;;;;;;;16.80;4.85;;;5.00;99.90;;;;;;5051867;28;20500;-87
2023/05/01 03:09:01;;;;;;;16.90;4.88;;;5.00;99.90;;;;;;5058959;28;20032;-87
2023/05/01 03:11:27;;;;;;;10.85;4.65;;;5.00;99.90;;;;;;5043307;28;20171;-88
2023/05/01 03:13:53;;;;;;;8.43;4.93;;;5.00;99.90;;;;;;5048461;28;20524;-89
2023/05/01 03:16:18;;;;;;;12.20;5.10;;;4.90;99.90;;;;;;5046495;28;20417;-87
2023/05/01 03:18:44;;;;;;;8.50;5.00;;;4.90;99.90;;;;;;5055310;28;20024;-88
2023/05/01 03:21:11;;;;;;;10.30;5.18;;;4.90;99.90;;;;;;5047121;28;20040;-87
2023/05/01 03:23:37;;;;;;;8.05;5.15;;;4.90;99.90;;;;;;5051246;28;20051;-88
2023/05/01 03:26:02;;;;;;;13.90;6.75;;;4.90;99.90;;;;;;5053802;28;20025;-87
2023/05/01 03:28:31;;;;;;;12.60;5.65;;;4.90;99.90;;;;;;5050265;28;20405;-87
2023/05/01 03:30:56;;;;;;;15.57;6.10;;;4.90;99.90;;;;;;5055352;28;20550;-86
2023/05/01 03:33:22;;;;;;;13.80;6.35;;;4.90;99.90;;;;;;5060261;28;20032;-91
2023/05/01 03:35:48;;;;;;;17.30;5.78;;;4.90;99.90;;;;;;5049812;28;20036;-85
2023/05/01 03:38:13;;;;;;;14.88;5.40;;;4.90;99.90;;;;;;5052949;28;20104;-85
2023/05/01 03:40:39;;;;;;;10.77;5.05;;;5.00;99.90;;;;;;5056012;28;20017;-87
2023/05/01 03:43:05;;;;;;;15.75;6.95;;;5.00;99.90;;;;;;5048302;28;20225;-85
2023/05/01 03:45:31;;;;;;;13.82;4.70;;;5.10;99.90;;;;;;5054911;28;20083;-85
2023/05/01 03:47:57;;;;;;;14.70;4.97;;;5.30;99.90;;;;;;5046875;28;20037;-88
2023/05/01 03:50:23;;;;;;;17.60;4.90;;;5.50;99.90;;;;;;5050929;28;20033;-87
2023/05/01 03:52:48;;;;;;;11.88;4.55;;;5.80;99.90;;;;;;5053929;28;20024;-84
2023/05/01 03:55:14;;;;;;;20.08;4.63;;;6.00;99.90;;;;;;5052850;28;20506;-85
2023/05/01 03:57:39;;;;;;;18.80;5.65;;;6.20;99.90;;;;;;5055736;28;20028;-86
2023/05/01 04:00:06;;;;;;;10.43;4.90;;;6.40;99.90;;;;;;5054920;28;20032;-84
2023/05/01 04:02:31;;;;;;;11.98;4.13;;;6.50;99.90;;;;;;5053042;28;20052;-83
2023/05/01 04:04:57;;;;;;;12.95;5.70;;;6.60;99.90;;;;;;5051516;28;20076;-85
2023/05/01 04:07:24;;;;;;;11.55;4.10;;;6.80;99.90;;;;;;5055688;28;20050;-88
2023/05/01 04:09:50;;;;;;;11.13;4.28;;;6.80;99.90;;;;;;5051580;28;20025;-84
2023/05/01 04:12:16;;;;;;;13.40;4.57;;;6.90;99.90;;;;;;5050727;28;20115;-87
2023/05/01 04:14:43;;;;;;;10.32;4.78;;;6.90;99.90;;;;;;5046699;28;20105;-85
2023/05/01 04:17:08;;;;;;;8.52;3.85;;;7.00;99.90;;;;;;5056204;28;20358;-87
2023/05/01 04:19:34;;;;;;;10.15;4.32;;;7.10;99.90;;;;;;5047410;28;20032;-86
2023/05/01 04:22:00;;;;;;;11.82;4.10;;;7.10;99.90;;;;;;5050225;28;20025;-86
2023/05/01 04:24:26;;;;;;;7.35;3.80;;;7.20;99.90;;;;;;5047832;28;20427;-86
2023/05/01 04:26:52;;;;;;;11.15;4.15;;;7.20;99.90;;;;;;5048742;28;20068;-85
2023/05/01 04:29:18;;;;;;;8.13;4.18;;;7.30;99.90;;;;;;5049028;28;20059;-84
2023/05/01 04:31:43;;;;;;;14.27;4.00;;;7.30;99.90;;;;;;5054364;28;20127;-86
2023/05/01 04:34:09;;;;;;;4.93;3.15;;;7.30;99.90;;;;;;5052574;28;20036;-86
2023/05/01 04:36:36;;;;;;;13.18;5.05;;;7.30;99.90;;;;;;5048570;28;20053;-89
2023/05/01 04:39:02;;;;;;;15.65;4.13;;;7.40;99.90;;;;;;5036194;28;20330;-93
2023/05/01 04:41:28;;;;;;;12.32;3.97;;;7.40;99.90;;;;;;5046446;28;20472;-87
2023/05/01 04:43:54;;;;;;;6.70;3.58;;;7.40;99.90;;;;;;5042267;28;20025;-87
2023/05/01 04:46:19;;;;;;;11.77;4.18;;;7.40;99.90;;;;;;5055541;28;20028;-87
2023/05/01 04:48:45;;;;;;;10.45;5.32;;;7.40;99.90;;;;;;5052368;28;20420;-85
2023/05/01 04:51:11;;;;;;;11.27;4.28;;;7.50;99.90;;;;;;5055680;28;20029;-92
2023/05/01 04:53:37;;;;;;;9.57;4.10;;;7.40;99.90;;;;;;5055033;28;20053;-95
2023/05/01 04:56:04;;;;;;;7.72;3.33;;;7.40;99.90;;;;;;5050708;28;20024;-87
2023/05/01 04:58:29;;;;;;;11.50;4.15;;;7.40;99.90;;;;;;5050173;28;20040;-87
2023/05/01 05:00:55;;;;;;;8.15;3.60;;;7.40;99.90;;;;;;5050071;28;20025;-88
2023/05/01 05:03:21;;;;;;;10.40;4.40;;;7.40;99.90;;;;;;5049960;28;20026;-87
2023/05/01 05:05:53;;;;;;;10.63;5.07;;;7.30;99.90;;;;;;5050268;28;20035;-95
2023/05/01 05:08:18;;;;;;;11.02;5.10;;;7.30;99.90;;;;;;5047060;28;20555;-88
2023/05/01 05:10:44;;;;;;;14.18;6.38;;;7.40;99.90;;;;;;5045822;28;20029;-87
2023/05/01 05:13:10;;;;;;;13.13;6.30;;;7.40;99.90;;;;;;5050621;28;20142;-88
2023/05/01 05:15:38;;;;;;;9.30;4.82;;;7.40;99.90;;;;;;5046672;28;20013;-87
2023/05/01 05:18:04;;;;;;;13.13;5.25;;;7.40;99.90;;;;;;5058827;28;20029;-88
2023/05/01 05:20:30;;;;;;;18.70;7.40;;;7.40;99.90;;;;;;5048916;28;20576;-95
2023/05/01 05:22:59;;;;;;;15.45;5.15;;;7.50;99.90;;;;;;5042037;28;20043;-95
2023/05/01 05:25:25;;;;;;;12.82;5.90;;;7.50;99.90;;;;;;5049853;28;20381;-88
2023/05/01 05:27:51;;;;;;;20.05;7.47;;;7.50;99.90;;;;;;5048547;28;20037;-88
2023/05/01 05:30:17;;;;;;;15.30;7.75;;;7.50;99.90;;;;;;5050600;28;20477;-87
2023/05/01 05:32:46;;;;;;;17.13;7.60;;;7.50;99.90;;;;;;5050229;28;20028;-88
2023/05/01 05:35:12;;;;;;;17.88;8.10;;;7.60;99.90;;;;;;5051065;28;20541;-89
2023/05/01 05:37:40;;;;;;;23.02;8.35;;;7.60;99.90;;;;;;5044115;28;20116;-94
2023/05/01 05:40:06;;;;;;;17.42;9.43;;;7.60;99.90;;;;;;5042852;28;20048;-88
2023/05/01 05:42:33;;;;;;;20.25;9.23;;;7.70;99.90;;;;;;5047342;28;20359;-88
2023/05/01 05:44:58;;;;;;;21.92;8.43;;;7.70;99.90;;;;;;5047848;28;20016;-87
2023/05/01 05:47:24;;;;;;;28.65;14.00;;;7.80;99.90;;;;;;5052486;28;20040;-87
2023/05/01 05:49:50;;;;;;;28.15;13.77;;;7.80;99.90;;;;;;5055556;28;20029;-87
2023/05/01 05:52:16;;;;;;;30.00;15.05;;;7.90;99.90;;;;;;5047422;28;20370;-87
2023/05/01 05:54:42;;;;;;;32.40;15.40;;;8.00;99.90;;;;;;5046976;28;20025;-89
2023/05/01 05:57:11;;;;;;;31.38;14.27;;;8.10;99.90;;;;;;5041252;28;20029;-88
2023/05/01 05:59:37;;;;;;;26.50;13.52;;;8.20;99.90;;;;;;5049890;28;20032;-87
2023/05/01 06:02:03;;;;;;;34.55;15.50;;;8.20;99.90;;;;;;5051048;28;20037;-87
2023/05/01 06:04:28;;;;;;;33.17;15.02;;;8.30;99.90;;;;;;5049329;28;20160;-87
2023/05/01 06:06:54;;;;;;;42.20;16.92;;;8.30;99.90;;;;;;5051911;28;20394;-87
2023/05/01 06:09:20;;;;;;;40.70;16.90;;;8.50;99.90;;;;;;5045745;28;20021;-87
2023/05/01 06:11:46;;;;;;;32.42;15.75;;;8.50;99.90;;;;;;5055739;28;20025;-88
2023/05/01 06:14:12;;;;;;;43.80;18.33;;;8.60;99.90;;;;;;5050604;28;20465;-89
2023/05/01 06:16:37;;;;;;;26.25;12.68;;;8.70;99.90;;;;;;5050605;28;20035;-88
2023/05/01 06:19:03;;;;;;;26.90;11.75;;;8.90;99.90;;;;;;5045352;28;20032;-87
2023/05/01 06:21:32;;;;;;;23.98;11.57;;;8.90;99.90;;;;;;5045875;28;20021;-88
2023/05/01 06:23:58;;;;;;;25.65;13.25;;;8.90;99.90;;;;;;5047821;28;20032;-89
2023/05/01 06:26:25;;;;;;;39.15;16.45;;;8.90;99.90;;;;;;5048434;28;20032;-87
2023/05/01 06:28:50;;;;;;;33.53;14.63;;;9.00;99.90;;;;;;5046640;28;20025;-89
2023/05/01 06:31:16;;;;;;;29.58;15.25;;;9.00;99.90;;;;;;5054843;28;20032;-87
2023/05/01 06:33:42;;;;;;;30.63;15.75;;;9.10;99.90;;;;;;5052156;28;20029;-88
2023/05/01 06:36:07;;;;;;;33.35;14.00;;;9.30;99.90;;;;;;5056942;28;20546;-89
2023/05/01 06:38:33;;;;;;;40.05;16.15;;;9.40;99.90;;;;;;5047262;28;20032;-91
2023/05/01 06:40:58;;;;;;;34.95;15.00;;;9.50;99.90;;;;;;5046507;28;20032;-91
2023/05/01 06:43:29;;;;;;;27.88;13.90;;;9.60;99.90;;;;;;5049234;28;20028;-87
2023/05/01 06:45:58;;;;;;;32.78;13.52;;;9.80;99.90;;;;;;5052616;28;20029;-87
2023/05/01 06:48:23;;;;;;;35.42;14.50;;;9.80;99.90;;;;;;5055417;28;20136;-88
2023/05/01 06:50:49;;;;;;;31.40;13.77;;;10.00;99.90;;;;;;5046242;28;20444;-86
2023/05/01 06:53:15;;;;;;;28.75;13.50;;;10.20;99.90;;;;;;5053436;28;20102;-87
2023/05/01 06:55:40;;;;;;;28.92;12.30;;;10.30;99.90;;;;;;5048565;28;20059;-87
2023/05/01 06:58:06;;;;;;;24.10;12.10;;;10.40;99.90;;;;;;5043570;28;20091;-88
2023/05/01 07:00:33;;;;;;;29.35;11.13;;;10.50;99.90;;;;;;5050242;28;20032;-88
2023/05/01 07:02:59;;;;;;;25.98;12.43;;;10.60;99.90;;;;;;5046221;28;20025;-91
2023/05/01 07:05:24;;;;;;;28.35;11.73;;;10.60;99.90;;;;;;5052270;28;20055;-89
2023/05/01 07:07:51;;;;;;;23.85;10.98;;;10.60;99.90;;;;;;5056548;28;20661;-93
2023/05/01 07:10:16;;;;;;;20.27;10.65;;;10.80;99.90;;;;;;5053073;28;20040;-88
2023/05/01 07:12:42;;;;;;;28.42;11.55;;;10.90;99.90;;;;;;5039239;28;20477;-88
2023/05/01 07:15:08;;;;;;;20.27;10.13;;;11.00;99.90;;;;;;5048060;28;20032;-88
2023/05/01 07:17:34;;;;;;;22.17;10.75;;;11.10;99.90;;;;;;5051092;28;20505;-87
2023/05/01 07:20:00;;;;;;;28.95;11.02;;;11.20;99.90;;;;;;5055485;28;20054;-87
2023/05/01 07:22:27;;;;;;;21.40;10.50;;;11.30;99.90;;;;;;5054978;28;20112;-89
2023/05/01 07:24:53;;;;;;;24.50;10.02;;;11.30;99.90;;;;;;5044516;28;20025;-86
2023/05/01 07:27:19;;;;;;;21.85;9.85;;;11.50;99.90;;;;;;5044455;28;20037;-88
2023/05/01 07:29:45;;;;;;;28.25;10.43;;;11.50;99.90;;;;;;5041166;28;20031;-88
2023/05/01 07:32:10;;;;;;;27.05;10.90;;;11.50;99.90;;;;;;5049716;28;20119;-87
2023/05/01 07:34:36;;;;;;;21.02;9.98;;;11.50;99.90;;;;;;5052099;28;20029;-87
2023/05/01 07:37:03;;;;;;;19.20;9.25;;;11.60;99.90;;;;;;5048778;28;20021;-90
2023/05/01 07:39:29;;;;;;;19.35;8.52;;;11.60;99.90;;;;;;5046147;28;20040;-87
2023/05/01 07:41:58;;;;;;;17.45;8.63;;;11.60;99.90;;;;;;5050963;28;20222;-88
2023/05/01 07:44:23;;;;;;;12.93;7.43;;;11.70;99.90;;;;;;5045923;28;20112;-89
2023/05/01 07:46:49;;;;;;;19.55;8.23;;;11.80;99.90;;;;;;5051286;28;20252;-88
2023/05/01 07:49:15;;;;;;;19.67;7.18;;;11.80;99.90;;;;;;5053824;28;20032;-87
2023/05/01 07:51:41;;;;;;;14.57;6.22;;;11.90;99.90;;;;;;5050042;28;20031;-87
2023/05/01 07:54:07;;;;;;;14.90;6.20;;;12.00;99.90;;;;;;5041679;28;20490;-90
2023/05/01 07:56:33;;;;;;;17.73;6.78;;;12.10;99.90;;;;;;5040110;28;20028;-88
2023/05/01 07:58:58;;;;;;;12.65;6.50;;;12.20;99.90;;;;;;5047260;28;20287;-87
2023/05/01 08:01:24;;;;;;;16.58;5.95;;;12.20;99.90;;;;;;5051443;28;20117;-88
2023/05/01 08:03:50;;;;;;;14.05;6.10;;;12.30;99.90;;;;;;5056447;28;20104;-86
2023/05/01 08:06:15;;;;;;;25.63;6.50;;;12.40;99.90;;;;;;5046571;28;20044;-87
2023/05/01 08:08:41;;;;;;;20.20;6.18;;;12.50;99.90;;;;;;5045299;28;20089;-89
2023/05/01 08:11:08;;;;;;;16.35;5.60;;;12.60;99.90;;;;;;5048945;28;20021;-88
2023/05/01 08:13:33;;;;;;;16.70;5.75;;;12.70;99.90;;;;;;5040976;28;20033;-89
2023/05/01 08:16:03;;;;;;;22.20;5.88;;;12.70;99.90;;;;;;5046593;28;20029;-88
2023/05/01 08:18:30;;;;;;;15.20;5.78;;;12.80;99.90;;;;;;5046926;28;20021;-86
2023/05/01 08:20:56;;;;;;;17.13;5.75;;;12.90;99.90;;;;;;5055511;28;20196;-88
2023/05/01 08:23:23;;;;;;;19.10;6.05;;;13.10;99.90;;;;;;5056281;28;20036;-86
2023/05/01 08:25:50;;;;;;;12.85;5.68;;;13.10;99.90;;;;;;5047763;28;20036;-86
2023/05/01 08:28:19;;;;;;;13.40;5.65;;;13.30;99.90;;;;;;5043656;28;20094;-86
2023/05/01 08:30:45;;;;;;;14.23;5.30;;;13.40;99.90;;;;;;5048081;28;20047;-85
2023/05/01 08:33:10;;;;;;;15.40;5.57;;;13.40;99.90;;;;;;5045233;28;20029;-85
2023/05/01 08:35:36;;;;;;;16.80;4.97;;;13.60;99.90;;;;;;5049547;28;20016;-89
2023/05/01 08:38:05;;;;;;;10.23;4.78;;;13.70;99.90;;;;;;5049975;28;20032;-92
2023/05/01 08:40:35;;;;;;;11.65;5.50;;;13.80;99.90;;;;;;5051223;28;20390;-89
2023/05/01 08:43:04;;;;;;;12.35;5.53;;;13.90;99.90;;;;;;5040536;28;20029;-91
2023/05/01 08:45:36;;;;;;;14.20;4.63;;;14.00;99.90;;;;;;5055341;28;20595;-86
2023/05/01 08:48:05;;;;;;;14.88;4.60;;;14.10;99.90;;;;;;5054922;28;20517;-82
2023/05/01 08:50:35;;;;;;;9.40;4.72;;;14.20;99.90;;;;;;5047779;28;20025;-89
2023/05/01 08:53:02;;;;;;;10.65;5.05;;;14.20;99.90;;;;;;5039776;28;20040;-82
2023/05/01 08:55:30;;;;;;;11.68;4.53;;;14.30;99.90;;;;;;5044625;28;20028;-86
2023/05/01 08:57:57;;;;;;;11.10;4.28;;;14.40;99.90;;;;;;5046556;28;20489;-85
2023/05/01 09:00:24;;;;;;;11.93;4.55;;;14.40;99.90;;;;;;5048105;28;20032;-86
2023/05/01 09:02:50;;;;;;;11.23;4.38;;;14.60;99.90;;;;;;5055500;28;20048;-86
2023/05/01 09:05:18;;;;;;;11.75;4.25;;;14.70;99.90;;;;;;5040413;28;20044;-85
2023/05/01 09:07:45;;;;;;;11.27;4.55;;;14.90;99.90;;;;;;5051078;28;20576;-87
2023/05/01 09:10:12;;;;;;;13.98;4.72;;;15.00;99.90;;;;;;5051718;28;20033;-88
2023/05/01 09:12:40;;;;;;;18.42;4.70;;;15.00;99.90;;;;;;5044915;28;20051;-88
2023/05/01 09:15:07;;;;;;;8.13;4.50;;;15.00;99.90;;;;;;5050826;28;20032;-85
2023/05/01 09:17:33;;;;;;;12.57;4.30;;;15.10;99.90;;;;;;5044633;28;20025;-86
2023/05/01 09:20:01;;;;;;;15.95;4.28;;;15.10;99.20;;;;;;5043709;28;20033;-85
2023/05/01 09:22:32;;;;;;;14.98;4.78;;;15.10;99.90;;;;;;5051815;28;20044;-87
2023/05/01 09:25:19;;;;;;;13.02;4.72;;;15.00;99.90;;;;;;5039079;28;20033;-88
2023/05/01 09:27:45;;;;;;;13.10;4.47;;;15.10;99.90;;;;;;5046514;28;20049;-85
2023/05/01 09:30:32;;;;;;;12.75;4.47;;;15.30;99.90;;;;;;5043227;28;20075;-87
2023/05/01 09:33:12;;;;;;;10.10;3.45;;;15.30;99.90;;;;;;5054345;28;20029;-92
2023/05/01 09:35:53;;;;;;;12.82;4.10;;;15.40;99.90;;;;;;5052949;28;20416;-88
2023/05/01 09:38:23;;;;;;;11.68;4.25;;;15.40;99.90;;;;;;5050345;28;20539;-86
2023/05/01 09:40:50;;;;;;;8.27;3.58;;;15.50;99.90;;;;;;5042029;28;20588;-86
2023/05/01 09:43:26;;;;;;;5.38;3.33;;;15.60;99.90;;;;;;5042719;28;20450;-88
2023/05/01 09:46:04;;;;;;;6.55;3.40;;;15.60;99.90;;;;;;5046545;28;20025;-87
2023/05/01 09:48:33;;;;;;;9.65;4.18;;;15.80;99.80;;;;;;5058898;28;20102;-92
2023/05/01 09:50:58;;;;;;;13.52;3.85;;;15.90;97.60;;;;;;5050836;28;20474;-88
2023/05/01 09:53:38;;;;;;;13.38;3.88;;;15.90;91.40;;;;;;5051511;28;20028;-86
2023/05/01 09:56:04;;;;;;;11.43;3.63;;;16.00;90.30;;;;;;5043660;28;20040;-89
2023/05/01 09:58:31;;;;;;;7.07;3.17;;;15.90;93.50;;;;;;5041356;28;20062;-90
2023/05/01 10:01:00;;;;;;;16.38;4.07;;;15.90;94.80;;;;;;5036981;28;20029;-92
2023/05/01 10:03:26;;;;;;;8.65;4.07;;;15.80;99.50;;;;;;5043617;28;21695;-87
2023/05/01 10:05:55;;;;;;;10.55;4.00;;;15.90;99.90;;;;;;5054854;28;20036;-88
2023/05/01 10:08:23;;;;;;;14.00;4.53;;;15.90;98.80;;;;;;5044188;28;20036;-88
2023/05/01 10:11:08;;;;;;;13.30;3.53;;;16.00;98.50;;;;;;5042484;28;20077;-85
2023/05/01 10:13:34;;;;;;;9.32;4.45;;;16.00;96.10;;;;;;5045305;28;20386;-88
2023/05/01 10:16:02;;;;;;;12.32;3.72;;;16.00;99.90;;;;;;5053039;28;20024;-86
2023/05/01 10:18:29;;;;;;;6.47;3.80;;;16.00;99.80;;;;;;5053054;28;20032;-87
2023/05/01 10:20:56;;;;;;;12.65;4.95;;;16.10;99.90;;;;;;5049373;28;20035;-90
2023/05/01 10:23:24;;;;;;;9.38;3.50;;;16.20;98.50;;;;;;5048314;28;20016;-86
2023/05/01 10:25:52;;;;;;;14.00;4.93;;;16.20;97.80;;;;;;5039178;28;20025;-88
2023/05/01 10:28:19;;;;;;;8.15;3.50;;;16.20;98.40;;;;;;5051909;28;20073;-86
2023/05/01 10:30:46;;;;;;;12.48;3.40;;;16.30;93.40;;;;;;5055357;28;20473;-86
2023/05/01 10:33:14;;;;;;;7.25;3.60;;;16.40;92.90;;;;;;5057498;28;20115;-91
2023/05/01 10:35:44;;;;;;;8.18;4.18;;;16.40;90.60;;;;;;5052730;28;20033;-87
2023/05/01 10:38:21;;;;;;;8.32;3.72;;;16.50;91.30;;;;;;5049217;28;20389;-86
2023/05/01 10:40:50;;;;;;;15.70;4.45;;;16.50;95.50;;;;;;5055771;28;20501;-92
2023/05/01 10:43:31;;;;;;;8.75;4.25;;;16.50;97.10;;;;;;5050871;28;20517;-86
2023/05/01 10:46:08;;;;;;;5.85;3.47;;;16.50;93.30;;;;;;5046286;28;20021;-92
2023/05/01 10:48:41;;;;;;;11.43;4.82;;;16.50;94.30;;;;;;5044010;28;20032;-92
2023/05/01 10:51:19;;;;;;;8.80;3.88;;;16.40;92.20;;;;;;5044088;28;20029;-88
2023/05/01 10:53:46;;;;;;;6.95;3.85;;;16.60;97.30;;;;;;5043733;28;20336;-88
2023/05/01 10:56:22;;;;;;;14.18;4.32;;;16.70;90.40;;;;;;5045614;28;20507;-89
2023/05/01 10:58:59;;;;;;;8.73;3.83;;;16.70;90.60;;;;;;5045247;28;20025;-85
2023/05/01 11:01:43;;;;;;;10.85;4.32;;;16.70;93.40;;;;;;5045149;28;20025;-87
2023/05/01 11:04:18;;;;;;;13.55;3.55;;;16.70;91.90;;;;;;5046551;28;20063;-87
2023/05/01 11:07:07;;;;;;;11.80;3.80;;;16.80;91.80;;;;;;5050054;28;20032;-89
2023/05/01 11:09:56;;;;;;;11.35;3.65;;;16.70;97.40;;;;;;5042865;28;20033;-90
2023/05/01 11:12:40;;;;;;;8.77;3.67;;;16.90;91.80;;;;;;5049856;28;20023;-88
2023/05/01 11:15:07;;;;;;;10.85;3.70;;;17.00;91.10;;;;;;5044239;28;20066;-88
2023/05/01 11:17:42;;;;;;;7.70;4.45;;;17.00;90.80;;;;;;5044365;28;20056;-87
2023/05/01 11:20:08;;;;;;;7.22;3.75;;;17.10;92.70;;;;;;5059389;28;20033;-88
2023/05/01 11:22:35;;;;;;;6.60;3.67;;;17.10;99.90;;;;;;5041326;28;20028;-89
2023/05/01 11:25:21;;;;;;;9.48;3.72;;;17.10;99.90;;;;;;5046891;28;20055;-89
2023/05/01 11:27:48;;;;;;;;;;;17.10;98.30;;;;;;5045190;28;20127;-85
2023/05/01 11:30:14;;;;;;;11.75;5.15;;;17.10;99.70;;;;;;5045424;28;19913;-86
2023/05/01 11:32:44;;;;;;;9.25;4.35;;;17.10;99.90;;;;;;5050391;28;20039;-87
2023/05/01 11:35:25;;;;;;;9.15;4.03;;;17.20;98.00;;;;;;5054145;28;20033;-87
2023/05/01 11:37:52;;;;;;;7.68;4.20;;;17.10;97.90;;;;;;5043649;28;20065;-87
2023/05/01 11:40:29;;;;;;;12.15;4.15;;;17.10;99.90;;;;;;5045173;28;20055;-86
2023/05/01 11:43:05;;;;;;;12.23;3.75;;;17.20;99.90;;;;;;5046411;28;20029;-87
2023/05/01 11:45:32;;;;;;;5.82;3.63;;;17.30;99.70;;;;;;5054414;28;20548;-87
2023/05/01 11:47:58;;;;;;;8.13;3.78;;;17.40;97.80;;;;;;5052260;28;20065;-90
2023/05/01 11:50:37;;;;;;;6.68;3.75;;;17.50;98.70;;;;;;5055222;28;20021;-85
2023/05/01 11:53:10;;;;;;;9.13;3.85;;;17.50;93.80;;;;;;5038041;28;20035;-90
2023/05/01 11:55:39;;;;;;;8.70;3.80;;;17.50;92.40;;;;;;5042518;28;20036;-86
2023/05/01 11:58:05;;;;;;;7.63;3.60;;;17.40;93.50;;;;;;5053673;28;20025;-86
2023/05/01 12:00:36;;;;;;;8.98;3.40;;;17.40;93.20;;;;;;5060576;28;20042;-90
2023/05/01 12:03:09;;;;;;;6.55;3.65;;;17.40;91.30;;;;;;5051270;28;20021;-91
2023/05/01 12:05:36;;;;;;;12.73;4.60;;;17.40;94.10;;;;;;5043906;28;20021;-89
2023/05/01 12:08:22;;;;;;;10.85;3.30;;;17.40;96.60;;;;;;5053170;28;20099;-88
2023/05/01 12:10:57;;;;;;;11.88;3.58;;;17.40;92.70;;;;;;5054845;28;20047;-89
2023/05/01 12:13:23;;;;;;;7.13;3.10;;;17.50;91.70;;;;;;5052249;28;20031;-89
2023/05/01 12:15:52;;;;;;;8.48;3.30;;;17.60;92.40;;;;;;5042949;28;21013;-89
2023/05/01 12:18:20;;;;;;;6.50;3.17;;;17.70;92.90;;;;;;5054487;28;20394;-90
2023/05/01 12:20:55;;;;;;;5.05;2.67;;;17.70;86.00;;;;;;5042847;28;20759;-88
2023/05/01 12:23:37;;;;;;;6.13;3.13;;;17.70;90.00;;;;;;5047571;28;20057;-93
2023/05/01 12:26:24;;;;;;;6.03;2.53;;;17.80;83.90;;;;;;5037677;28;20060;-89
2023/05/01 12:28:59;;;;;;;5.00;2.28;;;17.90;80.90;;;;;;5047673;28;20044;-90
2023/05/01 12:31:25;;;;;;;5.95;2.30;;;17.80;78.00;;;;;;5056918;28;20074;-90
2023/05/01 12:34:00;;;;;;;4.30;2.72;;;17.90;79.70;;;;;;5046363;28;20440;-90
2023/05/01 12:36:28;;;;;;;6.00;2.80;;;17.90;80.00;;;;;;5054418;28;20024;-89
2023/05/01 12:39:01;;;;;;;5.50;2.50;;;18.00;79.60;;;;;;5054134;28;20052;-90
2023/05/01 12:41:42;;;;;;;6.07;2.75;;;18.00;71.30;;;;;;5041759;28;20035;-90
2023/05/01 12:44:21;;;;;;;5.60;2.45;;;18.00;70.50;;;;;;5047124;28;20032;-90
2023/05/01 12:47:01;;;;;;;5.75;2.70;;;18.00;70.70;;;;;;5046236;28;20032;-92
2023/05/01 12:49:28;;;;;;;4.82;2.67;;;17.90;75.00;;;;;;5050320;28;20574;-90
2023/05/01 12:51:55;;;;;;;10.30;3.67;;;17.90;77.70;;;;;;5052728;28;20028;-89